createdAt,value
2018-12-31T00:00:30.659Z,11.94
2018-12-31T00:01:10.966Z,11.98
2018-12-31T00:01:51.484Z,11.98
2018-12-31T00:02:31.809Z,11.96
2018-12-31T00:03:12.236Z,12.04
2018-12-31T00:03:57.938Z,11.97
2018-12-31T00:04:40.053Z,11.96
2018-12-31T00:05:21.714Z,12
2018-12-31T00:06:01.819Z,12.03
2018-12-31T00:06:42.237Z,11.94
2018-12-31T00:07:22.617Z,11.98
2018-12-31T00:08:03.148Z,11.97
2018-12-31T00:08:43.705Z,11.98
2018-12-31T00:09:24.166Z,11.98
2018-12-31T00:10:04.530Z,11.97
2018-12-31T00:10:48.331Z,12.07
2018-12-31T00:11:29.581Z,12.01
2018-12-31T00:12:09.999Z,12.05
2018-12-31T00:12:50.431Z,12.16
2018-12-31T00:13:30.755Z,12.11
2018-12-31T00:14:11.143Z,12.16
2018-12-31T00:14:53.470Z,12.11
2018-12-31T00:15:34.240Z,12.08
2018-12-31T00:16:14.801Z,12.07
2018-12-31T00:16:55.613Z,12.03
2018-12-31T00:17:36.230Z,12.08
2018-12-31T00:18:16.611Z,12.11
2018-12-31T00:18:57.090Z,12.08
2018-12-31T00:19:40.195Z,12.05
2018-12-31T00:20:20.584Z,12.01
2018-12-31T00:21:02.167Z,12.01
2018-12-31T00:21:42.579Z,11.93
2018-12-31T00:22:23.056Z,11.9
2018-12-31T00:23:03.377Z,12.04
2018-12-31T00:24:41.761Z,11.97
2018-12-31T00:25:22.100Z,11.94
2018-12-31T00:26:02.498Z,11.94
2018-12-31T00:26:43.975Z,11.96
2018-12-31T00:27:24.349Z,11.87
2018-12-31T00:28:05.296Z,11.84
2018-12-31T00:28:45.627Z,11.97
2018-12-31T00:29:26.105Z,11.94
2018-12-31T00:30:06.397Z,11.96
2018-12-31T00:30:47.156Z,12.15
2018-12-31T00:31:29.092Z,12.12
2018-12-31T00:32:10.525Z,12.18
2018-12-31T00:32:50.426Z,12.13
2018-12-31T00:33:30.882Z,12.29
2018-12-31T00:34:11.350Z,12.26
2018-12-31T00:34:51.781Z,12.25
2018-12-31T00:35:32.291Z,12.29
2018-12-31T00:36:12.871Z,12.13
2018-12-31T00:36:56.141Z,12.16
2018-12-31T00:37:36.497Z,12.15
2018-12-31T00:38:18.640Z,12.12
2018-12-31T00:38:59.052Z,12.15
2018-12-31T00:39:42.968Z,12.15
2018-12-31T00:40:23.372Z,12.15
2018-12-31T08:16:14.904Z,12.01
2018-12-31T08:16:58.522Z,12.15
2018-12-31T08:17:38.926Z,12.08
2018-12-31T08:18:19.333Z,12.15
2018-12-31T08:18:59.736Z,12.15
2018-12-31T08:19:40.150Z,12.13
2018-12-31T08:20:20.560Z,12.19
2018-12-31T08:21:00.969Z,12.11
2018-12-31T08:21:41.383Z,12.13
2018-12-31T08:22:21.809Z,12.15
2018-12-31T08:23:02.260Z,12.29
2018-12-31T08:23:42.642Z,12.21
2018-12-31T08:24:23.038Z,12.19
2018-12-31T08:25:03.436Z,12.13
2018-12-31T08:25:44.437Z,12.16
2018-12-31T08:26:26.368Z,12.29
2018-12-31T08:27:06.769Z,12.26
2018-12-31T08:27:47.166Z,12.3
2018-12-31T08:28:27.548Z,12.33
2018-12-31T08:29:10.007Z,12.31
2018-12-31T08:29:48.571Z,12.29
2018-12-31T08:30:28.895Z,12.38
2018-12-31T08:31:10.556Z,12.52
2018-12-31T08:31:51.148Z,12.48
2018-12-31T08:32:31.502Z,12.59
2018-12-31T08:33:11.950Z,12.56
2018-12-31T08:33:52.322Z,12.54
2018-12-31T08:34:33.390Z,12.55
2018-12-31T08:35:13.755Z,12.56
2018-12-31T08:35:54.178Z,12.63
2018-12-31T08:36:34.562Z,12.63
2018-12-31T08:37:18.563Z,12.58
2018-12-31T08:37:58.728Z,12.69
2018-12-31T08:38:39.135Z,12.63
2018-12-31T08:39:19.531Z,12.73
2018-12-31T08:39:59.962Z,12.73
2018-12-31T08:40:40.390Z,12.77
2018-12-31T08:41:20.755Z,12.77
2018-12-31T08:42:01.146Z,12.76
2018-12-31T11:13:48.943Z,12.33
2018-12-31T11:14:29.999Z,12.34
2018-12-31T11:15:10.448Z,12.43
2018-12-31T11:15:50.901Z,12.49
2018-12-31T11:16:32.056Z,12.54
2018-12-31T11:17:12.461Z,12.48
2018-12-31T11:17:52.855Z,12.48
2018-12-31T11:18:34.079Z,12.61
2018-12-31T11:19:17.016Z,12.55
2018-12-31T11:19:57.487Z,12.58
2018-12-31T11:20:37.842Z,12.67
2018-12-31T11:21:18.247Z,12.77
2018-12-31T11:21:58.776Z,12.77
2018-12-31T11:22:39.072Z,12.91
2018-12-31T11:23:19.743Z,12.99
2018-12-31T11:24:00.824Z,12.95
2018-12-31T11:24:42.161Z,12.95
2018-12-31T11:25:21.667Z,12.96
2018-12-31T11:26:02.040Z,12.99
2018-12-31T11:26:42.467Z,13.04
2018-12-31T11:27:22.821Z,13.12
2018-12-31T11:28:03.702Z,13.17
2018-12-31T11:28:44.085Z,13.16
2018-12-31T11:29:24.427Z,13.21
2018-12-31T11:30:04.848Z,13.16
2018-12-31T11:30:45.273Z,13.25
2018-12-31T11:31:30.085Z,13.22
2018-12-31T11:32:07.483Z,13.27
2018-12-31T11:32:49.507Z,13.27
2018-12-31T11:33:29.865Z,13.21
2018-12-31T11:34:10.270Z,13.28
2018-12-31T11:34:50.670Z,13.35
2018-12-31T11:35:31.081Z,13.35
2018-12-31T11:36:11.455Z,13.28
2018-12-31T11:36:51.863Z,13.35
2018-12-31T11:37:36.285Z,13.32
2018-12-31T11:38:18.423Z,13.29
2018-12-31T11:38:58.826Z,13.36
2018-12-31T11:39:39.228Z,13.32
2018-12-31T11:40:19.953Z,13.36
2018-12-31T11:41:00.339Z,13.38
2018-12-31T11:41:41.045Z,13.32
2018-12-31T11:42:21.516Z,13.46
2018-12-31T11:43:02.776Z,13.38
2018-12-31T11:43:43.145Z,13.31
2018-12-31T11:44:23.587Z,13.32
2018-12-31T11:45:04.057Z,13.41
2018-12-31T11:45:44.374Z,13.43
2018-12-31T11:46:24.848Z,13.48
2018-12-31T11:47:05.311Z,13.47
2018-12-31T11:47:47.492Z,13.62
2018-12-31T11:48:27.831Z,13.55
2018-12-31T11:49:08.240Z,13.47
2018-12-31T11:49:48.604Z,13.62
2018-12-31T11:50:29.130Z,13.51
2018-12-31T11:51:09.389Z,13.51
2018-12-31T11:51:49.807Z,13.55
2018-12-31T11:52:30.174Z,13.36
2018-12-31T11:53:10.558Z,13.44
2018-12-31T11:53:50.964Z,13.48
2018-12-31T11:54:31.388Z,13.46
2018-12-31T11:55:11.745Z,13.48
2018-12-31T11:55:52.115Z,13.46
2018-12-31T11:56:32.539Z,13.48
2018-12-31T11:57:12.900Z,13.44
2018-12-31T11:57:53.282Z,13.44
2018-12-31T11:58:33.693Z,13.36
2018-12-31T11:59:14.074Z,13.41
2018-12-31T11:59:54.507Z,13.43
2018-12-31T12:00:34.962Z,13.5
2018-12-31T12:01:16.216Z,13.55
2018-12-31T12:01:56.558Z,13.5
2018-12-31T12:02:37.016Z,13.53
2018-12-31T12:03:17.407Z,13.5
2018-12-31T12:03:57.738Z,13.46
2018-12-31T12:04:38.166Z,13.5
2018-12-31T12:05:18.534Z,13.44
2018-12-31T12:05:58.941Z,13.44
2018-12-31T12:06:39.375Z,13.44
2018-12-31T12:07:19.731Z,13.51
2018-12-31T12:08:02.256Z,13.43
2018-12-31T12:08:42.983Z,13.39
2018-12-31T12:09:24.573Z,13.43
2018-12-31T12:10:05.055Z,13.46
2018-12-31T12:10:45.453Z,13.46
2018-12-31T12:11:26.750Z,13.48
2018-12-31T12:12:07.103Z,13.44
2018-12-31T12:12:47.586Z,13.5
2018-12-31T12:13:29.725Z,13.48
2018-12-31T12:14:10.147Z,13.43
2018-12-31T12:14:50.531Z,13.48
2018-12-31T12:15:30.921Z,13.47
2018-12-31T12:16:11.310Z,13.48
2018-12-31T12:16:53.321Z,13.51
2018-12-31T12:17:33.660Z,13.55
2018-12-31T12:18:14.080Z,13.48
2018-12-31T12:18:54.510Z,13.5
2018-12-31T12:19:34.890Z,13.57
2018-12-31T12:20:15.233Z,13.46
2018-12-31T12:20:55.670Z,13.55
2018-12-31T12:21:36.052Z,13.55
2018-12-31T12:22:16.451Z,13.57
2018-12-31T12:22:56.850Z,13.55
2018-12-31T12:23:37.220Z,13.47
2018-12-31T12:24:17.621Z,13.62
2018-12-31T12:24:57.994Z,13.53
2018-12-31T12:25:38.419Z,13.5
2018-12-31T12:26:18.833Z,13.47
2018-12-31T12:26:59.232Z,13.46
2018-12-31T12:27:39.619Z,13.62
2018-12-31T12:28:20.006Z,13.57
2018-12-31T12:29:00.426Z,13.5
2018-12-31T12:29:40.921Z,13.46
2018-12-31T12:30:21.274Z,13.48
2018-12-31T12:31:01.768Z,13.55
2018-12-31T12:31:42.106Z,13.5
2018-12-31T12:32:24.219Z,13.5
2018-12-31T12:33:04.793Z,13.63
2018-12-31T12:33:45.327Z,13.63
2018-12-31T12:34:25.741Z,13.62
2018-12-31T12:35:06.105Z,13.61
2018-12-31T12:35:47.204Z,13.69
2018-12-31T12:36:27.560Z,13.59
2018-12-31T12:37:07.995Z,13.62
2018-12-31T12:37:48.746Z,13.57
2018-12-31T12:38:28.799Z,13.63
2018-12-31T12:39:09.188Z,13.59
2018-12-31T12:39:49.596Z,13.61
2018-12-31T12:40:30.009Z,13.53
2018-12-31T12:41:10.449Z,13.55
2018-12-31T12:41:50.875Z,13.59
2018-12-31T12:42:31.245Z,13.63
2018-12-31T12:43:11.647Z,13.69
2018-12-31T12:43:52.064Z,13.72
2018-12-31T12:44:32.482Z,13.71
2018-12-31T12:45:12.928Z,13.81
2018-12-31T12:45:53.323Z,13.86
2018-12-31T12:46:33.709Z,13.87
2018-12-31T12:47:14.122Z,13.88
2018-12-31T12:47:54.514Z,13.83
2018-12-31T12:48:36.758Z,13.75
2018-12-31T12:49:17.363Z,13.81
2018-12-31T12:49:57.652Z,13.72
2018-12-31T12:50:38.410Z,13.81
2018-12-31T12:51:18.762Z,13.76
2018-12-31T12:51:59.165Z,13.87
2018-12-31T12:52:39.552Z,13.83
2018-12-31T12:53:19.968Z,13.72
2018-12-31T12:54:00.348Z,13.84
2018-12-31T12:54:41.934Z,13.76
2018-12-31T12:55:22.330Z,13.83
2018-12-31T12:56:02.722Z,13.9
2018-12-31T12:56:43.154Z,13.86
2018-12-31T12:57:23.553Z,13.88
2018-12-31T12:58:03.974Z,13.88
2018-12-31T12:58:44.398Z,13.94
2018-12-31T12:59:24.832Z,13.99
2018-12-31T13:00:05.255Z,13.98
2018-12-31T13:00:45.705Z,13.94
2018-12-31T13:01:26.135Z,13.9
2018-12-31T13:02:06.482Z,13.86
2018-12-31T13:02:46.863Z,13.87
2018-12-31T13:03:27.273Z,13.87
2018-12-31T13:04:07.647Z,13.86
2018-12-31T13:04:48.079Z,13.81
2018-12-31T13:05:29.294Z,13.76
2018-12-31T13:06:09.710Z,13.84
2018-12-31T13:06:50.081Z,13.88
2018-12-31T13:07:30.509Z,13.93
2018-12-31T13:08:10.904Z,13.93
2018-12-31T13:08:51.343Z,13.88
2018-12-31T13:09:33.492Z,13.88
2018-12-31T13:10:14.288Z,13.87
2018-12-31T13:10:54.275Z,13.8
2018-12-31T13:11:34.633Z,13.83
2018-12-31T13:12:15.007Z,13.84
2018-12-31T13:12:55.429Z,13.79
2018-12-31T13:13:35.842Z,13.75
2018-12-31T13:14:16.213Z,13.76
2018-12-31T13:14:56.628Z,13.71
2018-12-31T13:15:37.279Z,13.69
2018-12-31T13:16:17.515Z,13.75
2018-12-31T13:16:57.898Z,13.79
2018-12-31T13:17:38.319Z,13.76
2018-12-31T13:18:18.721Z,13.9
2018-12-31T13:18:59.121Z,13.96
2018-12-31T13:19:39.562Z,13.8
2018-12-31T13:20:19.866Z,13.84
2018-12-31T13:21:00.243Z,13.83
2018-12-31T13:21:40.623Z,13.84
2018-12-31T13:22:21.014Z,13.79
2018-12-31T13:23:01.432Z,13.75
2018-12-31T13:23:41.813Z,13.79
2018-12-31T13:24:22.204Z,13.84
2018-12-31T13:25:02.768Z,13.81
2018-12-31T13:25:43.151Z,13.72
2018-12-31T13:26:23.568Z,13.71
2018-12-31T13:27:03.993Z,13.76
2018-12-31T13:27:44.407Z,13.69
2018-12-31T13:28:24.825Z,13.71
2018-12-31T13:29:05.200Z,13.65
2018-12-31T13:29:45.606Z,13.65
2018-12-31T13:30:26.008Z,13.61
2018-12-31T13:31:06.389Z,13.59
2018-12-31T13:31:46.787Z,13.54
2018-12-31T13:32:27.219Z,13.61
2018-12-31T13:33:07.642Z,13.61
2018-12-31T13:33:48.049Z,13.61
2018-12-31T13:34:28.484Z,13.54
2018-12-31T13:35:08.878Z,13.69
2018-12-31T13:35:49.281Z,13.69
2018-12-31T13:36:29.631Z,13.69
2018-12-31T13:37:10.112Z,13.63
2018-12-31T13:37:50.461Z,13.73
2018-12-31T13:38:30.868Z,13.84
2018-12-31T13:39:11.333Z,13.81
2018-12-31T13:39:51.718Z,13.71
2018-12-31T13:40:32.076Z,13.81
2018-12-31T13:41:12.467Z,13.76
2018-12-31T13:41:52.856Z,13.69
2018-12-31T13:42:33.234Z,13.66
2018-12-31T13:43:13.670Z,13.66
2018-12-31T13:43:54.055Z,13.72
2018-12-31T13:44:34.495Z,13.71
2018-12-31T13:45:14.878Z,13.72
2018-12-31T13:45:55.283Z,13.66
2018-12-31T13:46:35.628Z,13.71
2018-12-31T13:47:16.074Z,13.68
2018-12-31T13:47:56.484Z,13.66
2018-12-31T13:48:36.864Z,13.72
2018-12-31T13:49:17.297Z,13.75
2018-12-31T13:49:57.670Z,13.81
2018-12-31T13:50:38.112Z,13.88
2018-12-31T13:51:18.476Z,13.93
2018-12-31T13:51:58.907Z,13.96
2018-12-31T13:52:39.270Z,14.02
2018-12-31T13:53:19.656Z,13.96
2018-12-31T13:54:00.076Z,14.02
2018-12-31T13:54:40.487Z,14.08
2018-12-31T13:55:20.878Z,14.12
2018-12-31T13:56:01.272Z,14.11
2018-12-31T13:56:41.788Z,14.13
2018-12-31T13:57:22.064Z,14.17
2018-12-31T13:58:02.518Z,14.11
2018-12-31T13:58:42.839Z,14.2
2018-12-31T13:59:23.271Z,14.19
2018-12-31T14:00:03.649Z,14.12
2018-12-31T14:00:44.074Z,14.09
2018-12-31T14:01:24.446Z,14.16
2018-12-31T14:02:04.911Z,14.05
2018-12-31T14:02:45.781Z,14.11
2018-12-31T14:03:26.325Z,14.09
2018-12-31T14:04:06.699Z,14.02
2018-12-31T14:15:48.766Z,14.06
2018-12-31T14:16:29.187Z,14.01
2018-12-31T14:17:09.588Z,13.94
2018-12-31T14:17:49.986Z,13.94
2018-12-31T14:18:30.407Z,13.87
2018-12-31T14:19:10.781Z,13.81
2018-12-31T14:19:51.176Z,13.88
2018-12-31T14:20:31.588Z,13.86
2018-12-31T14:21:11.979Z,13.88
2018-12-31T14:21:52.403Z,13.86
2018-12-31T14:22:32.783Z,13.8
2018-12-31T14:23:13.154Z,13.83
2018-12-31T14:23:53.560Z,13.86
2018-12-31T14:24:33.958Z,13.87
2018-12-31T14:25:14.363Z,13.86
2018-12-31T14:25:54.747Z,13.9
2018-12-31T14:26:35.140Z,13.9
2018-12-31T14:27:15.548Z,13.81
2018-12-31T14:27:55.941Z,13.83
2018-12-31T14:28:36.345Z,13.81
2018-12-31T14:29:16.751Z,13.83
2018-12-31T14:29:57.124Z,13.83
2018-12-31T14:30:37.527Z,13.84
2018-12-31T14:31:17.929Z,13.87
2018-12-31T14:31:58.360Z,13.76
2018-12-31T14:32:38.823Z,13.86
2018-12-31T14:33:19.139Z,13.9
2018-12-31T14:33:59.537Z,13.8
2018-12-31T14:34:39.928Z,13.87
2018-12-31T14:35:20.327Z,13.81
2018-12-31T14:36:00.778Z,13.87
2018-12-31T14:36:41.098Z,13.87
2018-12-31T14:37:21.498Z,13.94
2018-12-31T14:38:01.950Z,13.91
2018-12-31T14:38:42.295Z,13.98
2018-12-31T14:39:22.719Z,13.91
2018-12-31T14:40:03.109Z,13.84
2018-12-31T14:40:43.486Z,13.87
2018-12-31T14:41:23.905Z,13.73
2018-12-31T14:42:04.321Z,13.76
2018-12-31T14:42:44.682Z,13.86
2018-12-31T14:43:25.068Z,13.84
2018-12-31T14:44:05.516Z,13.93
2018-12-31T14:44:45.886Z,13.91
2018-12-31T14:45:26.306Z,13.9
2018-12-31T14:46:06.721Z,13.88
2018-12-31T14:46:47.140Z,13.96
2018-12-31T14:47:27.541Z,13.93
2018-12-31T14:48:07.982Z,13.91
2018-12-31T14:48:48.303Z,13.96
2018-12-31T14:49:28.703Z,13.91
2018-12-31T14:50:09.117Z,13.93
2018-12-31T14:50:49.528Z,13.94
2018-12-31T14:51:29.933Z,13.87
2018-12-31T14:52:10.312Z,13.84
2018-12-31T14:52:50.679Z,13.87
2018-12-31T14:53:31.075Z,13.9
2018-12-31T14:54:11.506Z,13.83
2018-12-31T14:54:51.885Z,13.88
2018-12-31T14:55:32.315Z,13.84
2018-12-31T14:56:12.683Z,13.86
2018-12-31T14:56:53.097Z,13.91
2018-12-31T14:57:33.473Z,13.87
2018-12-31T14:58:13.885Z,13.91
2018-12-31T14:58:54.259Z,13.9
2018-12-31T14:59:34.647Z,13.93
2018-12-31T15:00:15.051Z,13.86
2018-12-31T15:00:55.458Z,13.93
2018-12-31T15:01:35.903Z,14.02
2018-12-31T15:02:16.264Z,13.99
2018-12-31T15:02:56.665Z,13.99
2018-12-31T15:03:37.063Z,13.94
2018-12-31T15:04:17.481Z,14.05
2018-12-31T15:04:57.897Z,13.99
2018-12-31T15:05:38.319Z,13.99
2018-12-31T15:06:18.671Z,13.98
2018-12-31T15:06:59.062Z,14.06
2018-12-31T15:07:39.457Z,14.06
2018-12-31T15:08:19.857Z,14.04
2018-12-31T15:09:00.364Z,14.13
2018-12-31T15:09:40.804Z,14.08
2018-12-31T15:10:21.182Z,14.16
2018-12-31T15:11:01.594Z,14.11
2018-12-31T15:11:41.981Z,14.13
2018-12-31T15:12:22.373Z,14.12
2018-12-31T15:13:02.754Z,14.16
2018-12-31T15:13:43.169Z,14.13
2018-12-31T15:14:23.592Z,14.12
2018-12-31T15:15:03.958Z,14.12
2018-12-31T15:15:44.328Z,14.11
2018-12-31T15:16:24.758Z,14.05
2018-12-31T15:17:05.177Z,14.02
2018-12-31T15:17:45.586Z,13.99
2018-12-31T15:18:26.018Z,13.94
2018-12-31T15:19:06.461Z,13.91
2018-12-31T15:19:46.796Z,13.84
2018-12-31T15:20:27.229Z,13.83
2018-12-31T15:21:07.634Z,13.81
2018-12-31T15:21:48.007Z,13.86
2018-12-31T15:22:29.150Z,13.83
2018-12-31T15:23:08.795Z,13.84
2018-12-31T15:23:49.205Z,13.86
2018-12-31T15:24:29.567Z,13.81
2018-12-31T15:25:09.968Z,13.86
2018-12-31T15:25:50.350Z,13.81
2018-12-31T15:26:30.788Z,13.72
2018-12-31T15:27:11.147Z,13.76
2018-12-31T15:27:51.564Z,13.8
2018-12-31T15:28:31.939Z,13.88
2018-12-31T15:29:12.325Z,13.9
2018-12-31T15:29:52.706Z,13.79
2018-12-31T15:30:33.063Z,13.79
2018-12-31T15:31:13.530Z,13.68
2018-12-31T15:31:53.884Z,13.75
2018-12-31T15:32:34.287Z,13.71
2018-12-31T15:33:14.660Z,13.59
2018-12-31T15:33:55.079Z,13.57
2018-12-31T15:34:35.454Z,13.66
2018-12-31T15:35:15.870Z,13.65
2018-12-31T15:35:56.251Z,13.61
2018-12-31T15:36:36.665Z,13.61
2018-12-31T15:37:17.167Z,13.55
2018-12-31T15:37:57.497Z,13.54
2018-12-31T15:38:37.928Z,13.55
2018-12-31T15:39:18.321Z,13.55
2018-12-31T15:39:58.703Z,13.46
2018-12-31T15:40:39.097Z,13.51
2018-12-31T15:41:19.550Z,13.55
2018-12-31T15:41:59.902Z,13.57
2018-12-31T15:42:40.318Z,13.55
2018-12-31T15:43:20.681Z,13.59
2018-12-31T15:44:01.112Z,13.54
2018-12-31T15:44:41.460Z,13.62
2018-12-31T15:45:21.879Z,13.47
2018-12-31T15:46:02.291Z,13.59
2018-12-31T15:46:42.725Z,13.54
2018-12-31T15:47:23.094Z,13.54
2018-12-31T15:48:03.467Z,13.55
2018-12-31T15:48:43.854Z,13.48
2018-12-31T15:49:24.317Z,13.5
2018-12-31T15:50:04.645Z,13.5
2018-12-31T15:50:45.010Z,13.51
2018-12-31T15:51:25.404Z,13.55
2018-12-31T15:52:05.780Z,13.5
2018-12-31T15:52:46.212Z,13.47
2018-12-31T15:53:26.581Z,13.5
2018-12-31T15:54:06.965Z,13.51
2018-12-31T15:54:47.369Z,13.51
2018-12-31T15:55:27.815Z,13.46
2018-12-31T15:56:08.201Z,13.48
2018-12-31T15:56:48.608Z,13.5
2018-12-31T15:57:29.003Z,13.46
2018-12-31T15:58:09.512Z,13.54
2018-12-31T15:58:49.998Z,13.46
2018-12-31T15:59:30.388Z,13.54
2018-12-31T16:00:10.795Z,13.48
2018-12-31T16:00:51.166Z,13.61
2018-12-31T16:01:31.584Z,13.55
2018-12-31T16:02:11.982Z,13.47
2018-12-31T16:02:52.392Z,13.47
2018-12-31T16:03:32.736Z,13.47
2018-12-31T16:04:13.124Z,13.54
2018-12-31T16:04:53.510Z,13.51
2018-12-31T16:05:33.896Z,13.61
2018-12-31T16:06:14.297Z,13.5
2018-12-31T16:06:54.681Z,13.53
2018-12-31T16:07:35.063Z,13.57
2018-12-31T16:08:15.483Z,13.61
2018-12-31T16:08:55.933Z,13.57
2018-12-31T16:09:36.331Z,13.57
2018-12-31T16:10:16.758Z,13.5
2018-12-31T16:10:57.166Z,13.55
2018-12-31T16:11:37.558Z,13.51
2018-12-31T16:12:17.941Z,13.57
2018-12-31T16:12:58.327Z,13.48
2018-12-31T16:13:38.693Z,13.62
2018-12-31T16:14:19.099Z,13.62
2018-12-31T16:14:59.491Z,13.5
2018-12-31T16:15:39.870Z,13.46
2018-12-31T16:16:20.276Z,13.5
2018-12-31T16:17:00.699Z,13.48
2018-12-31T16:17:41.027Z,13.35
2018-12-31T16:18:21.414Z,13.31
2018-12-31T16:19:01.848Z,13.32
2018-12-31T16:19:42.190Z,13.21
2018-12-31T16:20:22.620Z,13.31
2018-12-31T16:21:03.010Z,13.35
2018-12-31T16:21:43.429Z,13.29
2018-12-31T16:22:23.821Z,13.32
2018-12-31T16:23:04.185Z,13.36
2018-12-31T16:23:44.580Z,13.38
2018-12-31T16:24:24.990Z,13.43
2018-12-31T16:25:05.334Z,13.36
2018-12-31T16:25:45.708Z,13.38
2018-12-31T16:26:26.113Z,13.39
2018-12-31T16:27:06.509Z,13.32
2018-12-31T16:27:46.883Z,13.27
2018-12-31T16:28:27.271Z,13.32
2018-12-31T16:29:07.670Z,13.36
2018-12-31T16:29:48.144Z,13.22
2018-12-31T16:30:28.476Z,13.35
2018-12-31T17:18:43.392Z,12.29
2018-12-31T17:19:23.747Z,12.31
2018-12-31T17:20:04.110Z,12.31
2018-12-31T17:20:44.514Z,12.33
2018-12-31T17:21:24.882Z,12.31
2018-12-31T17:22:05.278Z,12.4
2018-12-31T17:22:45.697Z,12.41
2018-12-31T17:23:26.087Z,12.51
2018-12-31T17:24:06.484Z,12.38
2018-12-31T17:24:46.864Z,12.48
2018-12-31T17:25:27.244Z,12.48
2018-12-31T17:26:07.649Z,12.54
2018-12-31T17:26:48.041Z,12.56
2018-12-31T17:27:28.457Z,12.58
2018-12-31T17:28:08.869Z,12.71
2018-12-31T17:28:49.256Z,12.77
2018-12-31T17:29:29.627Z,12.77
2018-12-31T17:30:10.044Z,12.87
2018-12-31T17:30:50.397Z,12.94
2018-12-31T17:31:30.814Z,13.04
2018-12-31T17:32:11.167Z,13.13
2018-12-31T17:32:51.553Z,13.14
2018-12-31T17:33:31.931Z,13.07
2018-12-31T17:34:12.309Z,13.07
2018-12-31T17:34:52.708Z,13.1
2018-12-31T17:35:33.089Z,12.95
2018-12-31T17:36:13.499Z,13.01
2018-12-31T17:36:53.916Z,12.94
2018-12-31T17:37:34.277Z,13.03
2018-12-31T17:38:14.662Z,12.98
2018-12-31T17:38:55.068Z,12.96
2018-12-31T17:39:35.428Z,13.01
2018-12-31T17:40:15.807Z,13.03
2018-12-31T17:40:56.191Z,13.04
2018-12-31T17:41:36.603Z,13.21
2018-12-31T17:42:17.015Z,13.19
2018-12-31T17:42:57.451Z,13.24
2018-12-31T17:43:37.883Z,13.25
2018-12-31T17:44:18.295Z,13.29
2018-12-31T17:44:58.668Z,13.27
2018-12-31T17:45:39.067Z,13.22
2018-12-31T17:46:19.495Z,13.22
2018-12-31T17:46:59.995Z,13.21
2018-12-31T17:47:40.280Z,13.27
2018-12-31T17:48:20.687Z,13.28
2018-12-31T17:49:01.029Z,13.22
2018-12-31T17:49:41.431Z,13.16
2018-12-31T17:50:21.840Z,13.12
2018-12-31T17:51:02.233Z,13.21
2018-12-31T17:51:42.591Z,13.17
2018-12-31T17:52:23.009Z,13.16
2018-12-31T17:53:03.460Z,13.19
2018-12-31T17:53:43.827Z,13.21
2018-12-31T17:54:24.255Z,13.27
2018-12-31T17:55:04.632Z,13.22
2018-12-31T17:55:45.014Z,13.25
2018-12-31T17:56:25.428Z,13.22
2018-12-31T17:57:05.807Z,13.21
2018-12-31T17:57:46.240Z,13.24
2018-12-31T17:58:26.591Z,13.21
2018-12-31T17:59:06.956Z,13.25
2018-12-31T17:59:47.768Z,13.24
2018-12-31T18:00:28.251Z,13.35
2018-12-31T18:01:08.633Z,13.41
2018-12-31T18:01:48.986Z,13.31
2018-12-31T18:02:29.380Z,13.31
2018-12-31T18:03:09.824Z,13.35
2018-12-31T18:03:50.239Z,13.44
2018-12-31T18:04:30.629Z,13.31
2018-12-31T19:32:04.615Z,13.09
2018-12-31T19:32:44.970Z,13.12
2018-12-31T19:33:25.353Z,13.09
2018-12-31T19:34:05.736Z,13.16
2018-12-31T19:34:46.170Z,13.19
2018-12-31T19:35:26.504Z,13.16
2018-12-31T19:36:06.904Z,13.14
2018-12-31T19:36:47.385Z,13.09
2018-12-31T19:37:27.724Z,13.07
2018-12-31T19:38:08.162Z,13.1
2018-12-31T19:38:48.589Z,12.99
2018-12-31T19:39:29.003Z,12.99
2018-12-31T19:40:09.408Z,12.88
2018-12-31T19:40:49.804Z,12.92
2018-12-31T19:41:30.200Z,12.98
2018-12-31T19:42:10.586Z,12.92
2018-12-31T19:42:50.993Z,13.03
2018-12-31T19:43:31.381Z,12.99
2018-12-31T19:44:11.749Z,13.04
2018-12-31T19:44:52.196Z,13.06
2018-12-31T19:45:32.588Z,12.89
2018-12-31T19:46:12.982Z,12.98
2018-12-31T19:46:53.403Z,12.98
2018-12-31T19:47:33.805Z,12.92
2018-12-31T19:48:14.214Z,12.98
2018-12-31T19:48:54.651Z,12.98
2018-12-31T19:49:35.063Z,12.98
2018-12-31T19:50:15.472Z,12.89
2018-12-31T19:50:55.854Z,12.98
2018-12-31T19:51:36.267Z,12.96
2018-12-31T19:52:16.660Z,12.91
2018-12-31T19:52:57.084Z,12.98
2018-12-31T19:53:37.483Z,12.95
2018-12-31T19:54:17.857Z,12.99
2018-12-31T19:54:58.639Z,12.95
2018-12-31T19:55:38.636Z,12.99
2018-12-31T19:56:19.047Z,12.96
2018-12-31T19:56:59.426Z,12.95
2018-12-31T19:57:39.864Z,12.81
2018-12-31T19:58:20.267Z,12.88
2018-12-31T19:59:00.632Z,12.89
2018-12-31T19:59:41.055Z,12.84
2018-12-31T20:00:21.488Z,12.85
2018-12-31T20:01:01.886Z,12.87
2018-12-31T20:01:42.272Z,12.84
2018-12-31T20:02:22.664Z,12.8
2018-12-31T20:03:03.077Z,12.73
2018-12-31T20:03:43.459Z,12.71
2018-12-31T20:04:24.012Z,12.59
2018-12-31T20:05:04.297Z,12.71
2018-12-31T20:05:44.712Z,12.63
2018-12-31T20:06:25.083Z,12.56
2018-12-31T20:07:05.478Z,12.55
2018-12-31T20:07:45.846Z,12.54
2018-12-31T20:08:26.244Z,12.55
2018-12-31T20:09:06.655Z,12.58
2018-12-31T20:09:47.024Z,12.59
2018-12-31T20:10:27.449Z,12.56
2018-12-31T20:11:07.832Z,12.59
2018-12-31T20:11:48.245Z,12.55
2018-12-31T20:12:28.653Z,12.55
2018-12-31T20:13:09.028Z,12.49
2018-12-31T20:13:49.421Z,12.48
2018-12-31T23:09:46.241Z,11.81
2018-12-31T23:10:26.539Z,11.79
2018-12-31T23:11:06.999Z,11.81
2018-12-31T23:11:47.383Z,11.69
2018-12-31T23:12:27.756Z,11.72
2018-12-31T23:13:09.126Z,11.63
2018-12-31T23:13:49.399Z,11.59
2018-12-31T23:14:29.851Z,11.62
2018-12-31T23:15:10.224Z,11.62
2018-12-31T23:15:50.644Z,11.53
2018-12-31T23:16:31.009Z,11.6
2018-12-31T23:17:11.450Z,11.59
2018-12-31T23:17:51.824Z,11.59
2018-12-31T23:18:32.248Z,11.59
2018-12-31T23:19:12.631Z,11.62
2018-12-31T23:19:53.039Z,11.57
2018-12-31T23:20:33.441Z,11.56
2018-12-31T23:21:13.842Z,11.56
2018-12-31T23:21:54.232Z,11.51
2018-12-31T23:22:34.623Z,11.45
2018-12-31T23:23:15.033Z,11.64
2018-12-31T23:23:55.418Z,11.69
2018-12-31T23:24:35.820Z,11.64
2018-12-31T23:25:16.214Z,11.7
2018-12-31T23:25:58.060Z,11.67
2018-12-31T23:26:37.000Z,11.75
2018-12-31T23:27:17.390Z,11.77
2018-12-31T23:27:57.751Z,11.72
2018-12-31T23:28:38.156Z,11.72
2018-12-31T23:29:18.529Z,11.84
2018-12-31T23:29:58.906Z,11.82
2018-12-31T23:30:39.337Z,11.82
2018-12-31T23:31:19.679Z,11.93
2018-12-31T23:32:00.077Z,11.94
2018-12-31T23:32:40.485Z,12.03
2018-12-31T23:33:20.872Z,11.93
2018-12-31T23:34:01.284Z,12.01
2018-12-31T23:34:41.673Z,11.97
2018-12-31T23:35:22.056Z,11.94
2018-12-31T23:36:02.442Z,11.96
2018-12-31T23:36:42.798Z,11.98
2018-12-31T23:37:23.203Z,11.97
2018-12-31T23:38:03.576Z,11.85
2018-12-31T23:38:44.990Z,11.98
2018-12-31T23:39:25.332Z,11.97
2018-12-31T23:40:05.739Z,11.96
2018-12-31T23:40:46.137Z,11.96
2018-12-31T23:41:26.547Z,11.93
2018-12-31T23:42:06.911Z,12.03
